Explorer — WDD9371 — position and weather

sailwx.info

Track history (hours):
 
Tides and Currents Weather Stations Pressure Air Temp Water Temp Dewpoint Dewpoint Depression Visibility Wind Speed Wind Dir Waves Ship Positions

Explorer

Owner: F/V Explorer, New Bedford, MA. More information available from US FCC via Universal Licensing System and Coast Guard Vessel Documentation Center.

Last reported at 2017-Jun-15 13:28 UTC. Time now 2017-Sep-25 22:43 UTC.
Position N 39°23' W 072°59'.
Warning: this ship's position is months out of date.

Length 28 m.

Type: Fishing. MMSI: 367310440.

Date/timePositionNaut miles runAvg speedWind from/ knotsBaromVisibWave heightAir tempDewpointWater temp
2017-Jun-15 13:28N 39°23' W 072°59'5 8.9
2017-Jun-15 12:56N 39°19' W 073°03'1 2.8
2017-Jun-15 12:24N 39°17' W 073°03'2 3.0
2017-Jun-15 11:39N 39°17' W 073°00'0 2.9
2017-Jun-15 11:30N 39°17' W 073°01'2 4.0
2017-Jun-15 11:00N 39°17' W 073°03'0 0.9
2017-Jun-15 10:29N 39°17' W 073°02'2 4.0
2017-Jun-15 10:01N 39°16' W 073°00'2 4.6
2017-Jun-15 09:30N 39°17' W 073°03'2 3.8
2017-Jun-15 09:00N 39°18' W 073°05'1 2.3
2017-Jun-15 08:30N 39°19' W 073°06'2 3.8
2017-Jun-15 08:00N 39°20' W 073°04'2 5.0
2017-Jun-15 07:30N 39°21' W 073°01'5 3.4
2017-Jun-15 05:59N 39°26' W 072°57'2 0.9
2017-Jun-15 04:20N 39°24' W 072°58'2 0.0
2017-Jun-13 12:47N 39°24' W 073°00'1 3.6
2017-Jun-13 12:28N 39°25' W 072°59'6 0.3
2017-Jun-12 13:03N 39°22' W 073°07'0 4.5
2017-Jun-12 12:57N 39°23' W 073°06'1 1.5
2017-Jun-12 12:04N 39°22' W 073°08'0 0.9
2017-Jun-12 12:00N 39°22' W 073°08'2 4.4
2017-Jun-12 11:30N 39°23' W 073°05'2 4.7
2017-Jun-12 11:00N 39°24' W 073°02'5 1.1
2017-Jun-12 06:39N 39°22' W 073°08'1 3.9
2017-Jun-12 06:26N 39°22' W 073°07'  
Track history (hours):
 
Tides and Currents Weather Stations Pressure Air Temp Water Temp Dewpoint Dewpoint Depression Visibility Wind Speed Wind Dir Waves Ship Positions

Explorer

Owner: F/V Explorer, New Bedford, MA. More information available from US FCC via Universal Licensing System and Coast Guard Vessel Documentation Center.

Last reported at 2017-Jun-15 13:28 UTC. Time now 2017-Sep-25 22:43 UTC.
Position N 39°23' W 072°59'.
Warning: this ship's position is months out of date.

Length 28 m.

Type: Fishing. MMSI: 367310440.

Date/timePositionNaut miles runAvg speedWind from/ knotsBaromVisibWave heightAir tempDewpointWater temp
2017-Jun-15 13:28N 39°23' W 072°59'5 8.9
2017-Jun-15 12:56N 39°19' W 073°03'1 2.8
2017-Jun-15 12:24N 39°17' W 073°03'2 3.0
2017-Jun-15 11:39N 39°17' W 073°00'0 2.9
2017-Jun-15 11:30N 39°17' W 073°01'2 4.0
2017-Jun-15 11:00N 39°17' W 073°03'0 0.9
2017-Jun-15 10:29N 39°17' W 073°02'2 4.0
2017-Jun-15 10:01N 39°16' W 073°00'2 4.6
2017-Jun-15 09:30N 39°17' W 073°03'2 3.8
2017-Jun-15 09:00N 39°18' W 073°05'1 2.3
2017-Jun-15 08:30N 39°19' W 073°06'2 3.8
2017-Jun-15 08:00N 39°20' W 073°04'2 5.0
2017-Jun-15 07:30N 39°21' W 073°01'5 3.4
2017-Jun-15 05:59N 39°26' W 072°57'2 0.9
2017-Jun-15 04:20N 39°24' W 072°58'2 0.0
2017-Jun-13 12:47N 39°24' W 073°00'1 3.6
2017-Jun-13 12:28N 39°25' W 072°59'6 0.3
2017-Jun-12 13:03N 39°22' W 073°07'0 4.5
2017-Jun-12 12:57N 39°23' W 073°06'1 1.5
2017-Jun-12 12:04N 39°22' W 073°08'0 0.9
2017-Jun-12 12:00N 39°22' W 073°08'2 4.4
2017-Jun-12 11:30N 39°23' W 073°05'2 4.7
2017-Jun-12 11:00N 39°24' W 073°02'5 1.1
2017-Jun-12 06:39N 39°22' W 073°08'1 3.9
2017-Jun-12 06:26N 39°22' W 073°07'  

Dump ship's entire track history